Hauptseite
METAR-TAF:

METAR-TAF

Flughäfen :

Flughafen Caracas

Caracas, Venezuela

Breite: 10-36N, Länge: 066-59W, Höhe: 43 m

Beobachtung

Neuester Wetterbericht von vor 46 Minuten, um 04:00 UTC
Wind 2 kt aus Südost
Temperatur 23°C
Luftfeuchtigkeit 89%
Luftdruck 1016 hPa
Sichtweite 10 km oder mehr
Leicht bewölkt in der Höhe von 1600 ft

METAR: SVMI 160400Z 14002KT 9999 FEW016 23/21 Q1016

Zeit: 00:46 (04:46 UTC)

Prognose

Neuester Wetterbericht von vor 6 Stunden und 46 Minuten, um 22:00 UTC
Gültige Prognose vom 16 um 00 UTC bis 17 um 00 UTC
Wind 13 kt aus Ost
Sichtweite 10 km oder mehr
Aufgelockert bewölkt in der Höhe von 1600 ft
Übergehend zu
vom 16 um 01 UTC bis 16 um 05 UTC
Wind 9 kt aus Ost
Leicht bewölkt in der Höhe von 1600 ft

TAF: SVMI 152200Z 1600/1700 09013KT 9999 SCT016 TX31/19Z TN23/10Z BECMG 1601/1605 09009KT FEW016

Wetterbeobachtungen und Prognosen von mehr als 4000 Flughäfen (METAR und TAF Bericht).

Die verfügbaren Stationen werden durch gelbe und rote Markierungen auf der Karte dargestellt.

Führen Sie die Maus auf sie, um den Namen der Station zu sehen.

Darauf klicken, um die Beobachtung von Wetterbeobachtungen und Prognosen zu sehen.

Um die Karte zu ändern : klicken Sie auf den grünen Tasten mit einem schwarzen Kreuz Zum Vergrößern, auf den grünen Button mit einem Gedankenstrich zu verkleinern, oder auf die grünen Pfeile für benachbarte Karten.


METAR-TAF: